Time;durP1;ratioP1;P1;durP2;ratioP2;P2;SDS_P1;SDS_P2;PMS_P1;PMS_P2;Temp;Humidity;BMP_temperature;BMP_pressure;BME280_temperature;BME280_humidity;BME280_pressure;Samples;Min_cycle;Max_cycle;Signal;HPM_P1;HPM_P2
2023/08/13 00:01:29;;;;;;;3.85;3.50;;;;;;;18.35;100.00;95317.53;4893157;29;20024;-93
2023/08/13 00:03:55;;;;;;;5.75;4.10;;;;;;;18.13;100.00;95337.19;4876735;29;20057;-93
2023/08/13 00:06:21;;;;;;;4.13;3.88;;;;;;;18.30;100.00;95320.75;4894374;29;20040;-96
2023/08/13 00:08:46;;;;;;;4.10;3.78;;;;;;;18.36;100.00;95288.47;4913029;29;20118;-94
2023/08/13 00:11:12;;;;;;;4.28;3.97;;;;;;;18.27;100.00;95281.03;4899347;29;20414;-96
2023/08/13 00:13:38;;;;;;;4.40;3.95;;;;;;;18.32;100.00;95292.53;4876100;29;20024;-91
2023/08/13 00:16:04;;;;;;;3.92;3.63;;;;;;;18.22;100.00;95281.69;4892306;29;20020;-93
2023/08/13 00:18:31;;;;;;;4.32;4.03;;;;;;;18.23;100.00;95287.72;4892604;29;20770;-93
2023/08/13 00:20:57;;;;;;;4.25;3.85;;;;;;;18.20;100.00;95293.41;4891309;29;20033;-91
2023/08/13 00:23:23;;;;;;;4.18;3.80;;;;;;;18.13;100.00;95303.91;4876371;29;20404;-88
2023/08/13 00:25:48;;;;;;;4.50;3.97;;;;;;;18.00;100.00;95296.09;4891848;29;20120;-89
2023/08/13 00:28:13;;;;;;;5.65;4.50;;;;;;;17.90;100.00;95295.72;4889595;29;20032;-88
2023/08/13 00:30:39;;;;;;;5.55;4.28;;;;;;;17.89;100.00;95309.84;4891486;29;20044;-93
2023/08/13 00:33:04;;;;;;;4.50;4.10;;;;;;;17.85;100.00;95316.53;4891163;29;20041;-95
2023/08/13 00:35:30;;;;;;;4.38;4.03;;;;;;;17.67;100.00;95309.31;4894878;29;20064;-90
2023/08/13 00:37:55;;;;;;;4.70;3.92;;;;;;;17.70;100.00;95295.78;4892099;29;20028;-92
2023/08/13 00:40:20;;;;;;;4.07;3.67;;;;;;;17.58;100.00;95307.09;4891090;29;20051;-92
2023/08/13 00:42:46;;;;;;;4.70;4.40;;;;;;;17.36;100.00;95330.09;4892714;29;20123;-96
2023/08/13 00:45:11;;;;;;;5.88;4.65;;;;;;;17.46;100.00;95324.44;4878202;29;20372;-96
2023/08/13 00:47:37;;;;;;;7.97;4.28;;;;;;;17.45;100.00;95330.66;4893404;29;20041;-96
2023/08/13 00:50:03;;;;;;;4.53;4.13;;;;;;;17.34;100.00;95345.19;4895680;29;20033;-95
2023/08/13 00:52:29;;;;;;;6.95;4.65;;;;;;;17.36;100.00;95364.13;4892807;29;20021;-96
2023/08/13 00:54:54;;;;;;;5.13;4.55;;;;;;;17.34;100.00;95366.13;4903511;29;20028;-96
2023/08/13 00:57:20;;;;;;;5.18;4.72;;;;;;;17.19;100.00;95379.44;4909139;29;20037;-96
2023/08/13 00:59:47;;;;;;;7.47;4.40;;;;;;;17.13;100.00;95385.47;4892282;29;20130;-96
2023/08/13 01:02:12;;;;;;;5.20;4.75;;;;;;;16.90;100.00;95419.03;4885672;29;20642;-92
2023/08/13 01:04:38;;;;;;;4.90;4.40;;;;;;;16.89;100.00;95430.50;4890832;29;20041;-91
2023/08/13 01:07:28;;;;;;;4.88;4.38;;;;;;;16.83;100.00;95439.16;4889144;29;20124;-88
2023/08/13 01:10:02;;;;;;;5.25;4.95;;;;;;;16.89;100.00;95434.97;4890023;29;20052;-92
2023/08/13 01:12:38;;;;;;;5.10;4.55;;;;;;;16.44;100.00;95436.38;4891099;29;20037;-92
2023/08/13 01:15:09;;;;;;;5.18;4.75;;;;;;;16.44;100.00;95458.06;4889406;29;20039;-90
2023/08/13 01:17:36;;;;;;;4.85;4.45;;;;;;;16.53;100.00;95540.63;4889365;29;20035;-92
2023/08/13 01:20:07;;;;;;;5.45;5.05;;;;;;;16.13;100.00;95530.91;4873889;29;20051;-93
2023/08/13 01:22:45;;;;;;;4.97;4.65;;;;;;;16.29;100.00;95544.50;4873506;29;20040;-94
2023/08/13 01:25:11;;;;;;;6.03;4.75;;;;;;;16.16;100.00;95502.56;4888491;29;20085;-90
2023/08/13 01:27:58;;;;;;;4.63;4.22;;;;;;;16.00;100.00;95505.47;4888419;29;20488;-91
2023/08/13 01:30:39;;;;;;;5.30;4.90;;;;;;;15.98;100.00;95512.72;4889422;29;20111;-90
2023/08/13 01:33:08;;;;;;;6.00;4.95;;;;;;;16.03;100.00;95512.94;4873721;29;20040;-91
2023/08/13 01:35:37;;;;;;;6.85;4.45;;;;;;;16.00;100.00;95483.75;4888427;29;20029;-90
2023/08/13 01:38:03;;;;;;;8.98;4.78;;;;;;;15.75;100.00;95481.59;4888298;29;20115;-91
2023/08/13 01:40:30;;;;;;;8.50;5.25;;;;;;;15.65;100.00;95498.56;4887126;29;20039;-91
2023/08/13 01:42:56;;;;;;;5.82;4.72;;;;;;;15.55;100.00;95521.56;4887955;29;20044;-90
2023/08/13 01:45:21;;;;;;;5.32;4.68;;;;;;;15.48;100.00;95523.31;4887880;29;20103;-88
2023/08/13 01:47:47;;;;;;;5.60;4.78;;;;;;;15.50;100.00;95513.50;4889416;29;20115;-89
2023/08/13 01:50:13;;;;;;;5.00;4.60;;;;;;;15.41;100.00;95494.50;4888385;29;20502;-91
2023/08/13 01:52:38;;;;;;;5.45;5.00;;;;;;;15.31;100.00;95505.25;4888976;29;20036;-92
2023/08/13 01:55:05;;;;;;;5.32;4.93;;;;;;;15.29;100.00;95494.19;4888025;29;20031;-89
2023/08/13 01:57:31;;;;;;;5.85;5.35;;;;;;;15.26;100.00;95489.34;4888703;29;20044;-91
2023/08/13 01:59:57;;;;;;;5.03;4.55;;;;;;;15.29;100.00;95470.72;4887929;29;20107;-91
2023/08/13 02:02:22;;;;;;;5.63;5.07;;;;;;;15.22;100.00;95462.00;4888962;29;20471;-91
2023/08/13 02:04:47;;;;;;;5.68;5.28;;;;;;;15.20;100.00;95466.59;4888788;29;20052;-94
2023/08/13 02:07:13;;;;;;;6.35;4.90;;;;;;;15.17;100.00;95459.16;4888138;29;20088;-90
2023/08/13 02:09:39;;;;;;;5.45;5.00;;;;;;;15.22;100.00;95443.72;4871180;29;20037;-87
2023/08/13 02:12:05;;;;;;;5.32;4.43;;;;;;;15.16;100.00;95436.66;4886949;29;20062;-88
2023/08/13 02:14:31;;;;;;;6.95;4.88;;;;;;;15.23;100.00;95421.06;4871371;29;20032;-90
2023/08/13 02:16:59;;;;;;;8.95;5.30;;;;;;;15.07;100.00;95437.78;4886389;29;20072;-86
2023/08/13 02:19:25;;;;;;;5.75;5.15;;;;;;;14.87;100.00;95473.28;4886919;29;20059;-86
2023/08/13 02:21:51;;;;;;;5.82;5.22;;;;;;;14.82;100.00;95498.31;4898627;29;20486;-88
2023/08/13 02:24:16;;;;;;;6.50;5.95;;;;;;;14.84;100.00;95481.47;4871472;29;20418;-91
2023/08/13 02:26:42;;;;;;;7.03;5.40;;;;;;;14.82;100.00;95469.63;4885588;29;20467;-89
2023/08/13 02:29:07;;;;;;;5.40;5.00;;;;;;;14.82;100.00;95452.16;4888364;29;20502;-92
2023/08/13 02:31:32;;;;;;;7.32;5.38;;;;;;;14.86;100.00;95445.59;4888273;29;20036;-92
2023/08/13 02:33:58;;;;;;;6.80;6.20;;;;;;;14.99;100.00;95450.97;4872419;29;20027;-93
2023/08/13 02:36:23;;;;;;;8.90;5.28;;;;;;;14.78;100.00;95480.41;4888115;29;20364;-92
2023/08/13 02:38:49;;;;;;;5.93;5.43;;;;;;;14.62;100.00;95506.69;4871963;29;20143;-92
2023/08/13 02:41:14;;;;;;;6.38;5.70;;;;;;;14.80;100.00;95503.72;4888036;29;20446;-88
2023/08/13 02:43:56;;;;;;;6.20;5.63;;;;;;;14.42;100.00;95505.63;4888865;29;20168;-92
2023/08/13 02:46:23;;;;;;;5.63;5.22;;;;;;;14.46;100.00;95547.78;4888008;29;20040;-91
2023/08/13 02:48:50;;;;;;;7.00;5.75;;;;;;;14.62;100.00;95551.00;4887609;29;20063;-94
2023/08/13 02:51:15;;;;;;;6.78;5.80;;;;;;;14.56;100.00;95563.97;4886652;29;20041;-91
2023/08/13 02:53:41;;;;;;;6.30;5.80;;;;;;;14.49;100.00;95574.28;4871966;29;20040;-89
2023/08/13 02:56:08;;;;;;;6.68;5.45;;;;;;;14.70;100.00;95568.38;4887204;29;20029;-88
2023/08/13 02:58:33;;;;;;;6.90;6.00;;;;;;;14.49;100.00;95558.66;4887470;29;20119;-89
2023/08/13 03:00:59;;;;;;;6.60;6.20;;;;;;;14.44;100.00;95560.19;4887572;29;20032;-88
2023/08/13 03:03:25;;;;;;;6.32;5.82;;;;;;;14.48;100.00;95566.66;4886153;29;20032;-87
2023/08/13 03:05:51;;;;;;;6.57;5.90;;;;;;;14.43;100.00;95555.94;4885142;29;20083;-87
2023/08/13 03:08:16;;;;;;;8.82;6.75;;;;;;;14.46;100.00;95552.97;4870215;29;20043;-84
2023/08/13 03:10:41;;;;;;;6.25;5.72;;;;;;;14.46;100.00;95539.94;4888096;29;20381;-94
2023/08/13 03:13:07;;;;;;;6.03;5.53;;;;;;;14.29;100.00;95538.50;4888249;29;20447;-92
2023/08/13 03:15:32;;;;;;;7.68;6.18;;;;;;;14.15;100.00;95553.94;4888369;29;20044;-90
2023/08/13 03:17:58;;;;;;;6.68;5.93;;;;;;;14.04;100.00;95585.59;4889529;29;20024;-88
2023/08/13 03:20:23;;;;;;;6.32;5.90;;;;;;;14.06;100.00;95586.22;4887311;29;20039;-90
2023/08/13 03:22:49;;;;;;;6.35;5.85;;;;;;;13.99;100.00;95582.72;4888744;29;20080;-85
2023/08/13 03:25:14;;;;;;;7.80;6.22;;;;;;;13.87;100.00;95588.53;4891263;29;20061;-87
2023/08/13 03:27:40;;;;;;;6.50;5.97;;;;;;;13.94;100.00;95603.28;4888954;29;20505;-90
2023/08/13 03:30:06;;;;;;;8.10;5.80;;;;;;;14.05;100.00;95579.41;4890159;29;20028;-86
2023/08/13 03:32:32;;;;;;;6.63;6.07;;;;;;;14.04;100.00;95562.16;4889530;29;20028;-90
2023/08/13 03:34:58;;;;;;;6.90;6.30;;;;;;;13.97;100.00;95566.44;4874023;29;20028;-90
2023/08/13 03:37:23;;;;;;;6.72;5.85;;;;;;;13.96;100.00;95562.25;4890203;29;20020;-88
2023/08/13 03:39:48;;;;;;;6.25;5.75;;;;;;;13.97;100.00;95557.81;4891428;29;20032;-89
2023/08/13 03:42:14;;;;;;;6.50;5.90;;;;;;;13.95;100.00;95549.41;4889475;29;20032;-91
2023/08/13 03:44:40;;;;;;;6.63;6.03;;;;;;;14.04;100.00;95541.31;4889921;29;20844;-87
2023/08/13 03:47:06;;;;;;;6.32;5.82;;;;;;;13.95;100.00;95549.41;4890075;29;20044;-89
2023/08/13 03:49:31;;;;;;;7.60;5.47;;;;;;;14.21;100.00;95549.81;4888874;29;20033;-85
2023/08/13 03:51:57;;;;;;;6.07;5.45;;;;;;;14.19;100.00;95505.66;4889416;29;21307;-92
2023/08/13 03:54:22;;;;;;;9.52;6.03;;;;;;;14.26;100.00;95498.75;4876000;29;20546;-93
2023/08/13 03:56:47;;;;;;;6.53;5.82;;;;;;;14.27;100.00;95484.75;4891157;29;20510;-90
2023/08/13 03:59:13;;;;;;;17.35;13.82;;;;;;;14.15;100.00;95494.00;4893040;29;20060;-89
2023/08/13 04:01:38;;;;;;;11.20;6.65;;;;;;;14.10;100.00;95505.94;4890694;29;20495;-92
2023/08/13 04:04:04;;;;;;;9.30;6.57;;;;;;;14.21;100.00;95519.34;4874552;29;20552;-90
2023/08/13 04:06:29;;;;;;;8.32;5.82;;;;;;;14.31;100.00;95513.06;4889858;29;20124;-89
2023/08/13 04:08:55;;;;;;;8.27;7.57;;;;;;;14.40;100.00;95497.19;4890482;29;20521;-92
2023/08/13 04:11:20;;;;;;;44.22;27.38;;;;;;;14.48;100.00;95488.47;4890710;29;20044;-94
2023/08/13 04:13:45;;;;;;;15.50;11.32;;;;;;;14.53;100.00;95488.72;4889953;29;20056;-93
2023/08/13 04:16:11;;;;;;;20.58;14.15;;;;;;;14.71;100.00;95473.50;4890591;29;20032;-94
2023/08/13 04:18:36;;;;;;;43.30;25.38;;;;;;;14.87;100.00;95443.78;4890309;29;20032;-91
2023/08/13 04:21:02;;;;;;;32.30;20.80;;;;;;;15.06;100.00;95415.28;4874201;29;20036;-89
2023/08/13 04:23:27;;;;;;;16.05;11.60;;;;;;;15.23;100.00;95398.38;4889602;29;20127;-90
2023/08/13 04:25:53;;;;;;;9.00;8.10;;;;;;;15.29;100.00;95389.00;4889315;29;20087;-89
2023/08/13 04:28:18;;;;;;;7.40;6.75;;;;;;;15.48;100.00;95377.09;4888560;29;20355;-86
2023/08/13 04:30:43;;;;;;;5.70;5.20;;;;;;;15.61;100.00;95356.31;4889298;29;20037;-92
2023/08/13 04:33:09;;;;;;;5.43;4.97;;;;;;;16.51;100.00;95316.91;4887131;29;20036;-89
2023/08/13 04:35:34;;;;;;;4.88;4.55;;;;;;;17.62;100.00;95269.03;4887124;29;20123;-85
2023/08/13 04:38:00;;;;;;;4.78;4.35;;;;;;;18.80;100.00;95229.88;4873424;29;20064;-89
2023/08/13 04:40:25;;;;;;;7.72;4.13;;;;;;;19.55;100.00;95227.97;4889968;29;20024;-90
2023/08/13 04:42:51;;;;;;;5.82;3.60;;;;;;;20.59;100.00;95211.03;4889098;29;20036;-87
2023/08/13 04:45:17;;;;;;;6.13;3.67;;;;;;;21.84;100.00;95210.44;4889872;29;20036;-91
2023/08/13 04:47:42;;;;;;;4.40;3.28;;;;;;;22.43;100.00;95209.22;4891039;29;20036;-90
2023/08/13 04:50:08;;;;;;;4.70;3.20;;;;;;;22.89;98.00;95207.38;4873897;29;20048;-92
2023/08/13 04:52:34;;;;;;;5.20;3.28;;;;;;;22.91;98.48;95210.56;4891208;29;20023;-91
2023/08/13 04:55:00;;;;;;;16.92;3.45;;;;;;;23.43;97.50;95206.59;4874007;29;20037;-92
2023/08/13 04:57:26;;;;;;;4.95;3.45;;;;;;;24.10;91.04;95219.59;4889810;29;20506;-90
2023/08/13 04:59:51;;;;;;;4.93;3.03;;;;;;;24.57;85.10;95215.34;4886562;29;20120;-91
2023/08/13 05:02:17;;;;;;;3.35;3.15;;;;;;;24.83;82.84;95223.53;4886796;29;20111;-91
2023/08/13 05:04:42;;;;;;;6.22;3.28;;;;;;;24.73;84.05;95218.13;4889022;29;20167;-90
2023/08/13 05:07:07;;;;;;;3.05;2.85;;;;;;;24.91;83.57;95225.75;4896698;29;20060;-91
2023/08/13 05:09:34;;;;;;;3.35;3.05;;;;;;;25.41;79.72;95223.44;4896281;29;20067;-90
2023/08/13 05:12:00;;;;;;;4.43;3.50;;;;;;;26.60;73.80;95222.63;4889074;29;20523;-91
2023/08/13 05:14:25;;;;;;;3.22;2.63;;;;;;;26.90;68.60;95224.53;4890333;29;20032;-93
2023/08/13 05:16:51;;;;;;;4.07;2.88;;;;;;;27.48;69.22;95225.84;4891002;29;20032;-91
2023/08/13 05:19:16;;;;;;;3.42;2.80;;;;;;;28.00;66.57;95222.78;4873712;29;20111;-93
2023/08/13 05:21:41;;;;;;;3.47;2.80;;;;;;;28.18;63.64;95219.53;4889516;29;20028;-91
2023/08/13 05:24:07;;;;;;;2.92;2.72;;;;;;;28.90;58.86;95220.72;4873610;29;20431;-95
2023/08/13 05:26:32;;;;;;;3.88;2.80;;;;;;;29.27;58.94;95223.63;4888942;29;20040;-92
2023/08/13 05:28:58;;;;;;;3.50;3.20;;;;;;;29.25;60.11;95231.91;4888998;29;20045;-94
2023/08/13 05:31:23;;;;;;;3.23;2.93;;;;;;;29.30;58.19;95223.06;4889577;29;20288;-95
2023/08/13 05:33:49;;;;;;;3.00;2.80;;;;;;;30.59;49.05;95220.25;4873341;29;20331;-95
2023/08/13 05:36:14;;;;;;;3.10;2.78;;;;;;;31.66;46.42;95222.84;4879491;29;20490;-95
2023/08/13 05:38:40;;;;;;;3.55;3.25;;;;;;;31.41;47.75;95220.56;4891406;29;20577;-96
2023/08/13 05:41:05;;;;;;;5.05;3.22;;;;;;;32.33;45.12;95223.94;4891252;29;20035;-96
2023/08/13 05:43:31;;;;;;;2.75;2.55;;;;;;;32.33;44.62;95230.09;4891100;29;20109;-93
2023/08/13 05:45:56;;;;;;;2.92;2.72;;;;;;;32.64;45.60;95232.94;4889006;29;20028;-96
2023/08/13 05:48:22;;;;;;;3.33;3.03;;;;;;;32.79;46.23;95226.44;4873007;29;20214;-93
2023/08/13 05:50:47;;;;;;;4.53;2.80;;;;;;;33.08;45.25;95231.38;4890240;29;20048;-94
2023/08/13 05:53:13;;;;;;;3.17;2.97;;;;;;;33.63;43.22;95232.75;4872087;29;20040;-93
2023/08/13 05:55:38;;;;;;;3.10;2.87;;;;;;;34.05;42.55;95230.53;4886898;29;20033;-94
2023/08/13 05:58:05;;;;;;;2.80;2.60;;;;;;;35.06;39.57;95227.56;4875347;29;20028;-96
2023/08/13 06:00:31;;;;;;;6.85;2.90;;;;;;;34.56;41.28;95227.19;4892377;29;20029;-94
2023/08/13 06:02:57;;;;;;;2.90;2.60;;;;;;;34.80;40.92;95231.06;4890401;29;20542;-96
2023/08/13 06:05:23;;;;;;;2.92;2.72;;;;;;;35.40;41.53;95230.22;4895937;29;20044;-96
2023/08/13 06:07:48;;;;;;;2.87;2.67;;;;;;;35.89;39.63;95223.44;4876337;29;20434;-96
2023/08/13 06:10:13;;;;;;;4.07;2.90;;;;;;;35.29;41.00;95232.47;4895276;29;20427;-96
2023/08/13 06:12:39;;;;;;;2.93;2.73;;;;;;;35.60;38.23;95223.38;5061864;23;20059;-90
2023/08/13 06:15:05;;;;;;;2.80;2.60;;;;;;;35.29;39.24;95226.28;4918830;29;20022;-90
2023/08/13 06:17:32;;;;;;;2.88;2.67;;;;;;;35.35;38.33;95228.47;4925344;29;20032;-91
2023/08/13 06:19:58;;;;;;;3.67;2.95;;;;;;;36.43;37.93;95222.56;4896200;29;20042;-96
2023/08/13 06:22:23;;;;;;;3.63;2.42;;;;;;;35.99;37.56;95227.69;4925571;29;20063;-92
2023/08/13 06:24:49;;;;;;;4.32;3.22;;;;;;;35.89;37.38;95226.16;4895231;29;20465;-92
2023/08/13 06:27:14;;;;;;;3.25;3.00;;;;;;;35.41;37.85;95226.44;4928277;29;20915;-90
2023/08/13 06:29:39;;;;;;;3.15;2.95;;;;;;;35.02;38.34;95222.00;4928209;29;20051;-84
2023/08/13 06:32:05;;;;;;;6.45;3.30;;;;;;;32.11;39.21;95227.34;4927451;29;20028;-92
2023/08/13 06:34:31;;;;;;;3.42;3.22;;;;;;;31.15;46.74;95225.56;4911827;29;20040;-95
2023/08/13 06:36:57;;;;;;;5.10;3.67;;;;;;;30.46;50.26;95229.81;4912945;29;20038;-96
2023/08/13 06:39:23;;;;;;;3.60;3.30;;;;;;;30.53;49.80;95227.56;4915921;29;20692;-94
2023/08/13 06:41:49;;;;;;;3.33;3.13;;;;;;;30.90;47.71;95220.59;4911802;29;20027;-94
2023/08/13 06:44:19;;;;;;;5.47;3.45;;;;;;;31.59;46.45;95223.25;4912888;29;20099;-96
2023/08/13 06:46:48;;;;;;;4.10;3.30;;;;;;;32.31;41.81;95226.91;4911961;29;20067;-96
2023/08/13 06:49:14;;;;;;;3.88;3.53;;;;;;;31.73;43.78;95220.56;4908112;29;20114;-96
2023/08/13 06:51:39;;;;;;;4.55;2.95;;;;;;;30.31;44.79;95222.75;4895598;29;20486;-96
2023/08/13 06:54:05;;;;;;;3.30;3.10;;;;;;;31.19;43.02;95221.22;4910578;29;20051;-96
2023/08/13 06:56:31;;;;;;;2.83;2.63;;;;;;;30.75;46.26;95224.31;4895539;29;20695;-93
2023/08/13 06:58:56;;;;;;;3.05;2.85;;;;;;;31.24;44.56;95227.28;4911925;29;20032;-94
2023/08/13 07:01:22;;;;;;;4.10;2.78;;;;;;;30.92;44.84;95221.88;4897740;29;20032;-96
2023/08/13 07:03:47;;;;;;;3.10;2.80;;;;;;;33.16;40.22;95218.06;4905096;29;20666;-96
2023/08/13 07:06:13;;;;;;;2.80;2.60;;;;;;;35.08;37.07;95220.75;4919655;29;20488;-95
2023/08/13 07:08:38;;;;;;;2.70;2.50;;;;;;;36.62;34.34;95219.44;4904305;29;20070;-91
2023/08/13 07:11:03;;;;;;;2.63;2.43;;;;;;;36.20;34.71;95220.44;4919592;29;20034;-84
2023/08/13 07:13:30;;;;;;;2.60;2.40;;;;;;;36.95;33.47;95216.78;4897939;29;20126;-96
2023/08/13 07:15:55;;;;;;;3.17;2.80;;;;;;;36.16;33.10;95220.31;4897104;29;20075;-95
2023/08/13 07:18:21;;;;;;;3.40;3.10;;;;;;;36.33;34.44;95216.72;4896573;29;20116;-90
2023/08/13 07:20:46;;;;;;;3.28;2.92;;;;;;;33.76;37.79;95218.41;4899048;29;20032;-96
2023/08/13 07:23:12;;;;;;;3.20;2.90;;;;;;;31.19;43.14;95211.31;4911082;29;20034;-86
2023/08/13 07:25:37;;;;;;;5.18;3.40;;;;;;;30.53;45.62;95216.06;4892834;29;20029;-88
2023/08/13 07:28:06;;;;;;;4.50;3.30;;;;;;;30.89;46.85;95216.34;4911092;29;20054;-93
2023/08/13 07:30:31;;;;;;;;;;;;;;;31.09;46.35;95221.38;4901322;29;20036;-96
2023/08/13 07:32:56;;;;;;;4.50;4.10;;;;;;;30.72;47.44;95211.50;4897032;29;19945;-95
2023/08/13 07:35:22;;;;;;;4.25;3.85;;;;;;;30.61;47.39;95202.84;4912915;29;20028;-96
2023/08/13 07:37:47;;;;;;;4.85;3.22;;;;;;;30.47;46.38;95209.22;4880821;29;20031;-91
2023/08/13 07:40:12;;;;;;;3.33;2.95;;;;;;;30.53;45.64;95205.38;4898190;29;20024;-95
2023/08/13 07:42:40;;;;;;;4.68;2.88;;;;;;;30.46;46.06;95203.06;4897383;29;20016;-96
2023/08/13 07:45:06;;;;;;;5.15;3.10;;;;;;;28.69;46.30;95202.19;4896096;29;20032;-89
2023/08/13 07:47:33;;;;;;;3.25;3.03;;;;;;;28.63;48.58;95203.25;4894595;29;20533;-93
2023/08/13 07:49:58;;;;;;;3.78;3.42;;;;;;;29.75;47.67;95197.75;4895269;29;20107;-89
2023/08/13 07:52:24;;;;;;;6.75;6.25;;;;;;;29.95;48.80;95202.09;4896928;29;20114;-93
2023/08/13 07:54:49;;;;;;;7.30;6.60;;;;;;;29.57;46.92;95196.59;4895451;29;20440;-90
2023/08/13 07:57:15;;;;;;;3.53;3.22;;;;;;;29.91;48.33;95198.41;4878862;29;20483;-94
2023/08/13 07:59:40;;;;;;;5.70;2.80;;;;;;;30.23;50.16;95199.31;4911346;29;20511;-93
2023/08/13 08:02:06;;;;;;;5.55;3.05;;;;;;;30.24;47.72;95190.25;4914606;29;20487;-91
2023/08/13 08:04:31;;;;;;;3.17;2.92;;;;;;;30.26;47.40;95190.72;4897705;29;20024;-96
2023/08/13 08:06:56;;;;;;;3.80;3.30;;;;;;;30.17;48.08;95183.63;4914466;29;20039;-94
2023/08/13 08:09:22;;;;;;;3.45;3.15;;;;;;;30.58;48.37;95183.88;4910665;29;20183;-92
2023/08/13 08:11:47;;;;;;;3.80;2.85;;;;;;;30.27;47.32;95181.63;4891766;29;20135;-96
2023/08/13 08:14:13;;;;;;;3.60;3.15;;;;;;;30.09;48.07;95186.94;4890450;29;20024;-85
2023/08/13 08:16:38;;;;;;;3.55;2.92;;;;;;;29.95;48.60;95186.06;4890479;29;20522;-84
2023/08/13 08:19:04;;;;;;;7.78;2.80;;;;;;;30.50;49.20;95171.97;4891390;29;20036;-92
2023/08/13 08:21:31;;;;;;;4.18;3.13;;;;;;;29.65;51.79;95171.16;4894469;29;20063;-91
2023/08/13 08:23:56;;;;;;;2.95;2.75;;;;;;;29.23;51.84;95169.16;4890489;29;20044;-84
2023/08/13 08:26:21;;;;;;;3.20;3.00;;;;;;;29.81;51.77;95170.69;4881685;29;20024;-93
2023/08/13 08:28:47;;;;;;;3.22;2.92;;;;;;;30.12;49.31;95159.63;4894565;29;20067;-88
2023/08/13 08:31:12;;;;;;;3.38;3.08;;;;;;;30.52;46.95;95151.06;4893932;29;20127;-86
2023/08/13 08:33:38;;;;;;;3.30;3.00;;;;;;;30.61;48.28;95152.00;4895430;29;20055;-83
2023/08/13 08:36:03;;;;;;;3.90;2.72;;;;;;;30.11;49.33;95152.72;4892071;29;20072;-90
2023/08/13 08:38:29;;;;;;;3.33;2.78;;;;;;;29.48;47.74;95150.25;4896596;29;20067;-86
2023/08/13 08:40:56;;;;;;;2.90;2.60;;;;;;;29.26;49.02;95144.59;4879277;29;20028;-94
2023/08/13 08:43:23;;;;;;;5.22;3.10;;;;;;;29.73;51.91;95139.25;4894184;29;20055;-96
2023/08/13 08:45:48;;;;;;;3.35;2.90;;;;;;;29.64;49.37;95145.50;4894309;29;20047;-84
2023/08/13 08:48:14;;;;;;;3.20;2.58;;;;;;;30.04;50.67;95138.91;4874902;29;20036;-90
2023/08/13 08:50:43;;;;;;;2.90;2.70;;;;;;;30.38;50.37;95139.47;4890766;29;20044;-91
2023/08/13 08:53:10;;;;;;;2.35;2.25;;;;;;;29.61;48.75;95141.53;4889104;29;20040;-91
2023/08/13 08:55:36;;;;;;;3.08;2.88;;;;;;;29.47;48.82;95147.88;4882915;29;20040;-90
2023/08/13 08:58:01;;;;;;;2.97;2.70;;;;;;;28.45;52.18;95141.81;4877285;29;20064;-85
2023/08/13 09:00:27;;;;;;;3.00;2.80;;;;;;;28.96;49.87;95142.22;4876912;29;20028;-89
2023/08/13 09:02:52;;;;;;;2.80;2.60;;;;;;;28.45;46.94;95137.25;4880837;29;20471;-84
2023/08/13 09:05:19;;;;;;;3.10;2.90;;;;;;;28.86;45.75;95135.09;4880909;29;20146;-85
2023/08/13 09:07:45;;;;;;;2.90;2.70;;;;;;;29.49;47.84;95127.00;4886843;29;20430;-86
2023/08/13 09:10:11;;;;;;;3.40;2.85;;;;;;;28.03;50.53;95129.00;4874531;29;20051;-92
2023/08/13 09:12:38;;;;;;;3.40;2.90;;;;;;;28.16;49.39;95123.84;4903723;29;20151;-84
2023/08/13 09:15:09;;;;;;;2.70;2.50;;;;;;;27.69;48.78;95128.88;4889060;29;20047;-88
2023/08/13 09:17:35;;;;;;;3.05;2.78;;;;;;;27.38;49.55;95117.53;4892569;29;20123;-91
2023/08/13 09:20:08;;;;;;;3.22;2.92;;;;;;;27.65;50.11;95119.84;4889962;29;20115;-89
2023/08/13 09:22:34;;;;;;;3.05;2.65;;;;;;;27.60;49.81;95123.34;4891040;29;20441;-81
2023/08/13 09:25:04;;;;;;;3.63;3.40;;;;;;;28.27;50.14;95113.94;4891724;29;20095;-88
2023/08/13 09:27:32;;;;;;;3.25;2.95;;;;;;;27.87;49.92;95114.94;4891285;29;20593;-84
2023/08/13 09:29:59;;;;;;;4.53;3.30;;;;;;;26.82;50.06;95116.03;4907649;29;20451;-85
2023/08/13 09:32:27;;;;;;;3.47;3.20;;;;;;;27.27;50.20;95110.63;4906609;29;20225;-88
2023/08/13 09:34:52;;;;;;;4.67;2.87;;;;;;;27.44;47.66;95116.47;4890581;29;20028;-87
2023/08/13 09:37:18;;;;;;;3.95;3.20;;;;;;;27.85;50.03;95111.75;4889383;29;20282;-84
2023/08/13 09:39:43;;;;;;;2.80;2.60;;;;;;;27.82;49.50;95108.84;4891265;29;20044;-87
2023/08/13 09:42:09;;;;;;;3.25;2.85;;;;;;;27.42;51.37;95104.47;4889677;29;20028;-82
2023/08/13 09:44:34;;;;;;;3.58;3.10;;;;;;;27.91;50.79;95115.97;4890014;29;20385;-89
2023/08/13 09:47:02;;;;;;;2.88;2.67;;;;;;;27.81;50.90;95107.25;4872393;29;20033;-89
2023/08/13 09:49:33;;;;;;;3.22;2.92;;;;;;;27.93;53.53;95110.41;4905657;29;20068;-88
2023/08/13 09:52:00;;;;;;;3.42;3.03;;;;;;;27.79;57.45;95117.38;4889242;29;20067;-87
2023/08/13 09:54:36;;;;;;;5.57;3.38;;;;;;;27.45;61.04;95107.44;4864330;29;20033;-89
2023/08/13 09:57:03;;;;;;;3.95;3.22;;;;;;;27.32;60.95;95107.97;4890885;29;20035;-89
2023/08/13 09:59:34;;;;;;;3.72;3.08;;;;;;;26.78;60.90;95114.97;4889964;29;20036;-90
2023/08/13 10:01:59;;;;;;;3.30;3.10;;;;;;;26.64;63.83;95120.81;4889151;29;20067;-87
2023/08/13 10:04:25;;;;;;;3.50;3.20;;;;;;;26.49;63.86;95128.00;4888663;29;20044;-85
2023/08/13 10:06:51;;;;;;;4.63;3.50;;;;;;;26.68;62.56;95124.53;4869274;29;20474;-85
2023/08/13 10:09:16;;;;;;;3.30;3.00;;;;;;;26.43;63.33;95124.53;4902831;29;20024;-85
2023/08/13 10:11:42;;;;;;;3.40;3.10;;;;;;;26.62;65.44;95119.47;4865724;29;20113;-88
2023/08/13 10:14:08;;;;;;;4.47;3.55;;;;;;;26.24;64.48;95127.97;4886246;29;20087;-88
2023/08/13 10:16:33;;;;;;;4.32;3.95;;;;;;;26.22;62.36;95124.78;4885255;29;20041;-84
2023/08/13 10:19:00;;;;;;;4.85;3.60;;;;;;;25.99;68.13;95118.88;4869665;29;20075;-85
2023/08/13 10:21:35;;;;;;;4.03;3.72;;;;;;;26.10;64.50;95120.47;4883564;29;20044;-85
2023/08/13 10:24:06;;;;;;;5.25;3.42;;;;;;;26.27;67.20;95122.91;4880387;29;20040;-87
2023/08/13 10:26:31;;;;;;;4.18;3.50;;;;;;;25.83;66.72;95117.25;4866581;29;20443;-87
2023/08/13 10:28:57;;;;;;;3.60;3.30;;;;;;;26.12;67.69;95120.22;4876836;29;20032;-86
2023/08/13 10:31:22;;;;;;;4.10;3.35;;;;;;;26.45;69.17;95124.28;4880054;29;20802;-82
2023/08/13 10:34:06;;;;;;;3.53;3.22;;;;;;;26.22;65.87;95128.25;4877751;29;20589;-86
2023/08/13 10:36:44;;;;;;;5.88;3.40;;;;;;;26.26;65.37;95124.00;4880015;29;20029;-81
2023/08/13 10:39:32;;;;;;;4.38;2.90;;;;;;;26.17;66.76;95120.25;4880150;29;20028;-82
2023/08/13 10:41:57;;;;;;;4.82;3.72;;;;;;;26.71;67.30;95110.69;4884578;29;20069;-85
2023/08/13 10:44:29;;;;;;;5.25;3.42;;;;;;;27.11;67.02;95114.41;4886970;29;20107;-87
2023/08/13 10:46:56;;;;;;;3.92;3.40;;;;;;;27.05;63.05;95112.81;4887701;29;20033;-84
2023/08/13 10:49:21;;;;;;;3.85;3.38;;;;;;;26.84;64.51;95111.28;4881866;29;20049;-86
2023/08/13 10:51:50;;;;;;;3.22;2.92;;;;;;;26.98;62.32;95107.78;4887292;29;20037;-89
2023/08/13 10:54:17;;;;;;;3.60;2.90;;;;;;;27.12;63.73;95106.16;4886158;29;20039;-92
2023/08/13 10:56:42;;;;;;;3.78;2.80;;;;;;;26.37;58.88;95106.19;4871049;29;20040;-85
2023/08/13 10:59:08;;;;;;;3.58;3.38;;;;;;;26.96;61.35;95103.81;4862575;29;20705;-88
2023/08/13 11:01:33;;;;;;;3.15;2.95;;;;;;;26.75;61.51;95100.31;4886630;29;20029;-85
2023/08/13 11:04:01;;;;;;;3.55;3.30;;;;;;;26.63;60.90;95099.81;4885256;29;20055;-86
2023/08/13 11:06:30;;;;;;;3.28;3.08;;;;;;;26.52;60.50;95100.91;4885522;29;20434;-83
2023/08/13 11:08:56;;;;;;;3.22;3.03;;;;;;;26.79;59.26;95095.28;4887553;29;20052;-89
2023/08/13 11:11:21;;;;;;;3.28;2.97;;;;;;;26.65;58.88;95093.16;4887876;29;20029;-86
2023/08/13 11:13:48;;;;;;;3.65;2.85;;;;;;;26.88;60.89;95091.84;4908529;29;20540;-87
2023/08/13 11:16:13;;;;;;;3.92;3.33;;;;;;;27.02;57.89;95098.19;4904549;29;20442;-86
2023/08/13 11:18:39;;;;;;;4.53;3.20;;;;;;;27.23;59.13;95098.94;4889333;29;20031;-82
2023/08/13 11:21:06;;;;;;;3.33;3.10;;;;;;;27.17;58.92;95089.38;4904970;29;20047;-85
2023/08/13 11:23:32;;;;;;;4.03;2.92;;;;;;;27.05;61.77;95092.34;4889395;29;20169;-87
2023/08/13 11:25:57;;;;;;;3.00;2.80;;;;;;;27.27;61.33;95093.88;4888488;29;20028;-86